createdAt,value
2019-06-01T00:00:27.307Z,0
2019-06-01T00:01:28.730Z,0
2019-06-01T00:02:30.040Z,0
2019-06-01T00:03:31.387Z,0
2019-06-01T00:04:32.761Z,0
2019-06-01T00:05:34.109Z,0
2019-06-01T00:06:35.579Z,0
2019-06-01T00:07:36.941Z,0
2019-06-01T00:08:40.164Z,0
2019-06-01T00:09:40.928Z,0
2019-06-01T00:10:41.100Z,0
2019-06-01T00:11:43.339Z,0
2019-06-01T00:12:43.602Z,0
2019-06-01T00:13:45.593Z,0
2019-06-01T00:14:46.283Z,0
2019-06-01T00:15:48.289Z,0
2019-06-01T00:16:50.351Z,0
2019-06-01T00:17:50.298Z,0
2019-06-01T00:18:51.659Z,0
2019-06-01T00:19:53.017Z,0
2019-06-01T00:20:54.937Z,0
2019-06-01T00:21:55.693Z,0
2019-06-01T00:22:57.053Z,0
2019-06-01T00:23:58.416Z,0
2019-06-01T00:24:59.772Z,0
2019-06-01T00:26:01.129Z,0
2019-06-01T00:27:02.483Z,0
2019-06-01T00:28:03.843Z,0
2019-06-01T00:29:05.202Z,0
2019-06-01T00:30:06.596Z,0
2019-06-01T00:31:07.914Z,0
2019-06-01T00:32:09.274Z,0
2019-06-01T00:33:10.639Z,0
2019-06-01T00:34:12.661Z,0
2019-06-01T00:35:14.011Z,0
2019-06-01T00:36:15.376Z,0
2019-06-01T00:37:16.718Z,0
2019-06-01T00:38:18.078Z,0
2019-06-01T00:39:19.438Z,0
2019-06-01T00:40:20.847Z,0
2019-06-01T00:41:22.160Z,0
2019-06-01T00:42:23.514Z,0
2019-06-01T00:43:24.866Z,0
2019-06-01T00:44:26.221Z,0
2019-06-01T00:45:27.583Z,0
2019-06-01T00:46:28.958Z,0
2019-06-01T00:47:30.313Z,0
2019-06-01T00:48:31.671Z,0
2019-06-01T00:49:33.077Z,0
2019-06-01T00:50:34.382Z,0
2019-06-01T00:51:35.748Z,0
2019-06-01T00:52:37.106Z,0
2019-06-01T00:53:38.466Z,0
2019-06-01T00:54:39.825Z,0
2019-06-01T00:55:41.181Z,0
2019-06-01T00:56:43.424Z,0
2019-06-01T00:57:43.874Z,0
2019-06-01T00:58:45.654Z,0
2019-06-01T00:59:47.964Z,0
2019-06-01T01:00:49.148Z,0
2019-06-01T01:01:50.004Z,0
2019-06-01T01:02:50.585Z,0
2019-06-01T01:03:52.367Z,0
2019-06-01T01:04:54.374Z,0
2019-06-01T01:05:54.853Z,0
2019-06-01T01:06:55.914Z,0
2019-06-01T01:07:57.274Z,0
2019-06-01T01:08:58.643Z,0
2019-06-01T01:09:59.990Z,0
2019-06-01T01:11:01.338Z,0
2019-06-01T01:12:02.907Z,0
2019-06-01T01:13:04.268Z,0
2019-06-01T01:14:05.644Z,0
2019-06-01T01:15:07.000Z,0
2019-06-01T01:16:08.353Z,0
2019-06-01T01:17:09.703Z,0
2019-06-01T01:18:11.058Z,0
2019-06-01T01:19:12.418Z,0
2019-06-01T01:20:13.772Z,0
2019-06-01T01:21:15.232Z,0
2019-06-01T01:22:16.597Z,0
2019-06-01T01:23:17.963Z,0
2019-06-01T01:24:19.321Z,0
2019-06-01T01:25:20.664Z,0
2019-06-01T01:26:22.016Z,0
2019-06-01T01:27:23.377Z,0
2019-06-01T01:28:24.767Z,0
2019-06-01T01:29:26.173Z,0
2019-06-01T01:30:27.548Z,0
2019-06-01T01:31:28.923Z,0
2019-06-01T01:32:30.268Z,0
2019-06-01T01:33:31.608Z,0
2019-06-01T01:34:32.977Z,0
2019-06-01T01:35:34.322Z,0
2019-06-01T01:36:35.680Z,0
2019-06-01T01:37:37.042Z,0
2019-06-01T01:38:38.401Z,0
2019-06-01T01:39:39.768Z,0
2019-06-01T01:40:41.128Z,0
2019-06-01T01:41:42.478Z,0
2019-06-01T01:42:43.839Z,0
2019-06-01T01:43:45.210Z,0
2019-06-01T01:44:46.553Z,0
2019-06-01T01:45:48.545Z,0
2019-06-01T01:46:49.234Z,0
2019-06-01T01:47:50.834Z,0
2019-06-01T01:48:52.044Z,0
2019-06-01T01:49:54.052Z,0
2019-06-01T01:50:54.623Z,0
2019-06-01T01:51:55.984Z,0
2019-06-01T01:52:57.337Z,0
2019-06-01T01:53:58.810Z,0
2019-06-01T01:55:00.015Z,0
2019-06-01T01:56:01.370Z,0
2019-06-01T01:57:02.726Z,0
2019-06-01T01:58:04.088Z,0
2019-06-01T01:59:05.444Z,0
2019-06-01T02:00:06.803Z,0
2019-06-01T02:01:21.431Z,0
2019-06-01T02:02:09.469Z,0
2019-06-01T02:03:10.835Z,0
2019-06-01T02:04:12.189Z,0
2019-06-01T02:05:13.540Z,0
2019-06-01T02:06:14.904Z,0
2019-06-01T02:07:16.259Z,0
2019-06-01T02:08:17.621Z,0
2019-06-01T02:09:18.976Z,0
2019-06-01T02:10:20.330Z,0
2019-06-01T02:11:21.688Z,0
2019-06-01T02:12:23.049Z,0
2019-06-01T02:13:24.398Z,0
2019-06-01T02:14:25.753Z,0
2019-06-01T02:15:27.120Z,0
2019-06-01T02:16:28.461Z,0
2019-06-01T02:17:29.904Z,0
2019-06-01T02:18:31.267Z,0
2019-06-01T02:19:32.630Z,0
2019-06-01T02:20:33.985Z,0
2019-06-01T02:21:35.349Z,0
2019-06-01T02:22:36.710Z,0
2019-06-01T02:23:38.066Z,0
2019-06-01T02:24:39.440Z,0
2019-06-01T02:25:40.790Z,0
2019-06-01T02:26:42.162Z,0
2019-06-01T02:27:43.514Z,0
2019-06-01T02:28:44.884Z,0
2019-06-01T02:29:46.283Z,0
2019-06-01T02:30:47.682Z,0
2019-06-01T02:31:49.104Z,0
2019-06-01T02:32:50.532Z,0
2019-06-01T02:33:51.908Z,0
2019-06-01T02:34:54.312Z,0
2019-06-01T02:35:56.157Z,0
2019-06-01T02:36:56.516Z,0
2019-06-01T02:37:58.603Z,0
2019-06-01T02:38:58.785Z,0
2019-06-01T02:40:00.954Z,0
2019-06-01T02:41:03.052Z,0
2019-06-01T02:42:03.448Z,0
2019-06-01T02:43:06.275Z,0
2019-06-01T02:44:06.314Z,0
2019-06-01T02:45:06.875Z,0
2019-06-01T02:46:08.243Z,0
2019-06-01T02:47:09.603Z,0
2019-06-01T02:48:10.959Z,0
2019-06-01T02:49:12.315Z,0
2019-06-01T02:50:13.667Z,0
2019-06-01T02:51:15.029Z,0
2019-06-01T02:52:16.391Z,0
2019-06-01T02:53:17.748Z,0
2019-06-01T02:54:19.105Z,0
2019-06-01T02:55:20.455Z,0
2019-06-01T02:56:21.826Z,0
2019-06-01T02:57:23.177Z,0
2019-06-01T02:58:24.531Z,0
2019-06-01T02:59:25.891Z,0
2019-06-01T03:00:27.245Z,0
2019-06-01T03:01:28.616Z,0
2019-06-01T03:02:29.974Z,0
2019-06-01T03:03:31.326Z,0
2019-06-01T03:04:32.689Z,0
2019-06-01T03:05:34.042Z,0
2019-06-01T03:06:35.396Z,0
2019-06-01T03:07:36.754Z,0
2019-06-01T03:08:38.122Z,0
2019-06-01T03:09:39.466Z,0
2019-06-01T03:10:40.824Z,0
2019-06-01T03:11:42.303Z,0
2019-06-01T03:12:43.651Z,0
2019-06-01T03:13:45.005Z,0
2019-06-01T03:14:46.359Z,5
2019-06-01T03:15:47.713Z,5
2019-06-01T03:16:49.076Z,5
2019-06-01T03:17:50.427Z,5
2019-06-01T03:18:51.786Z,5
2019-06-01T03:19:53.169Z,5
2019-06-01T03:20:54.536Z,11
2019-06-01T03:21:55.890Z,11
2019-06-01T03:22:57.250Z,11
2019-06-01T03:23:59.688Z,11
2019-06-01T03:24:59.943Z,11
2019-06-01T03:26:02.056Z,16
2019-06-01T03:27:02.935Z,16
2019-06-01T03:28:04.148Z,16
2019-06-01T03:29:07.110Z,22
2019-06-01T03:30:08.928Z,22
2019-06-01T03:31:08.897Z,22
2019-06-01T03:32:33.331Z,22
2019-06-01T03:33:10.755Z,28
2019-06-01T03:34:13.772Z,28
2019-06-01T03:35:13.311Z,28
2019-06-01T03:36:14.677Z,33
2019-06-01T03:37:16.037Z,33
2019-06-01T03:38:17.400Z,33
2019-06-01T03:39:18.859Z,39
2019-06-01T03:40:23.979Z,39
2019-06-01T03:41:21.544Z,45
2019-06-01T03:42:22.901Z,45
2019-06-01T03:43:24.257Z,45
2019-06-01T03:44:25.618Z,50
2019-06-01T03:45:26.975Z,50
2019-06-01T03:46:28.349Z,56
2019-06-01T03:47:29.695Z,56
2019-06-01T03:48:31.064Z,56
2019-06-01T03:49:32.425Z,61
2019-06-01T03:50:33.790Z,61
2019-06-01T03:51:35.156Z,67
2019-06-01T03:52:36.526Z,67
2019-06-01T03:53:37.892Z,67
2019-06-01T03:54:39.246Z,73
2019-06-01T03:55:40.607Z,73
2019-06-01T03:56:41.965Z,78
2019-06-01T03:57:43.325Z,78
2019-06-01T03:58:44.687Z,78
2019-06-01T03:59:46.046Z,84
2019-06-01T04:00:47.412Z,84
2019-06-01T04:01:48.796Z,90
2019-06-01T04:02:50.132Z,90
2019-06-01T04:03:51.492Z,95
2019-06-01T04:04:52.853Z,95
2019-06-01T04:05:54.222Z,95
2019-06-01T04:06:55.647Z,101
2019-06-01T04:07:57.017Z,101
2019-06-01T04:08:58.370Z,106
2019-06-01T04:09:59.735Z,106
2019-06-01T04:11:01.403Z,106
2019-06-01T04:12:03.466Z,112
2019-06-01T04:13:03.839Z,112
2019-06-01T04:14:05.597Z,118
2019-06-01T04:15:10.221Z,118
2019-06-01T04:16:07.896Z,123
2019-06-01T04:17:10.076Z,123
2019-06-01T04:18:10.496Z,123
2019-06-01T04:19:12.172Z,129
2019-06-01T04:20:13.217Z,129
2019-06-01T04:21:14.567Z,135
2019-06-01T04:22:15.932Z,135
2019-06-01T04:23:17.293Z,135
2019-06-01T04:24:18.658Z,140
2019-06-01T04:25:20.016Z,140
2019-06-01T04:26:21.392Z,140
2019-06-01T04:27:22.743Z,146
2019-06-01T04:28:24.101Z,146
2019-06-01T04:29:25.471Z,146
2019-06-01T04:30:26.827Z,151
2019-06-01T04:31:28.188Z,151
2019-06-01T04:32:29.546Z,151
2019-06-01T04:33:30.910Z,151
2019-06-01T04:34:35.590Z,151
2019-06-01T04:35:33.647Z,157
2019-06-01T04:36:35.020Z,157
2019-06-01T04:37:36.386Z,157
2019-06-01T04:38:37.735Z,157
2019-06-01T04:39:39.088Z,163
2019-06-01T04:40:40.461Z,163
2019-06-01T04:41:41.817Z,163
2019-06-01T04:42:43.193Z,163
2019-06-01T04:43:44.552Z,163
2019-06-01T04:44:45.908Z,163
2019-06-01T04:45:47.272Z,168
2019-06-01T04:46:48.638Z,168
2019-06-01T04:47:50.004Z,168
2019-06-01T04:48:51.405Z,168
2019-06-01T04:49:52.711Z,168
2019-06-01T04:50:54.078Z,168
2019-06-01T04:51:55.437Z,174
2019-06-01T04:52:56.813Z,174
2019-06-01T04:53:58.171Z,174
2019-06-01T04:54:59.536Z,174
2019-06-01T04:56:00.897Z,174
2019-06-01T04:57:02.262Z,174
2019-06-01T04:58:04.569Z,174
2019-06-01T04:59:05.005Z,174
2019-06-01T05:00:15.261Z,174
2019-06-01T05:01:08.865Z,174
2019-06-01T05:02:09.264Z,180
2019-06-01T05:03:10.844Z,180
2019-06-01T05:04:11.681Z,180
2019-06-01T05:05:13.332Z,185
2019-06-01T05:06:15.368Z,185
2019-06-01T05:07:15.708Z,191
2019-06-01T05:08:17.086Z,196
2019-06-01T05:09:18.426Z,196
2019-06-01T05:10:19.792Z,196
2019-06-01T05:11:21.153Z,202
2019-06-01T05:12:22.534Z,202
2019-06-01T05:13:23.896Z,202
2019-06-01T05:14:25.268Z,208
2019-06-01T05:15:26.636Z,208
2019-06-01T05:16:28.011Z,208
2019-06-01T05:17:29.356Z,208
2019-06-01T05:18:30.723Z,208
2019-06-01T05:19:32.094Z,213
2019-06-01T05:20:33.452Z,213
2019-06-01T05:21:34.815Z,213
2019-06-01T05:22:36.186Z,213
2019-06-01T05:23:37.543Z,219
2019-06-01T05:24:38.917Z,219
2019-06-01T05:25:40.281Z,219
2019-06-01T05:26:41.651Z,219
2019-06-01T05:27:43.022Z,225
2019-06-01T05:28:44.399Z,225
2019-06-01T05:30:00.802Z,225
2019-06-01T05:31:02.170Z,230
2019-06-01T05:32:03.522Z,230
2019-06-01T05:33:18.537Z,236
2019-06-01T05:34:07.622Z,236
2019-06-01T05:35:07.696Z,236
2019-06-01T05:36:10.022Z,247
2019-06-01T05:37:10.792Z,393
2019-06-01T05:38:12.195Z,736
2019-06-01T05:39:12.869Z,905
2019-06-01T05:40:14.742Z,832
2019-06-01T05:41:16.691Z,736
2019-06-01T05:42:17.021Z,663
2019-06-01T05:43:19.921Z,635
2019-06-01T05:44:19.659Z,624
2019-06-01T05:45:22.692Z,601
2019-06-01T05:46:22.373Z,596
2019-06-01T05:47:23.737Z,579
2019-06-01T05:48:28.462Z,590
2019-06-01T05:49:26.484Z,607
2019-06-01T05:50:27.843Z,658
2019-06-01T05:51:29.234Z,663
2019-06-01T05:52:30.648Z,646
2019-06-01T05:53:32.024Z,703
2019-06-01T05:54:33.457Z,697
2019-06-01T05:55:34.859Z,708
2019-06-01T05:56:36.228Z,720
2019-06-01T05:57:37.603Z,753
2019-06-01T05:58:38.983Z,776
2019-06-01T05:59:40.353Z,826
2019-06-01T06:00:41.713Z,798
2019-06-01T06:01:43.087Z,826
2019-06-01T06:02:44.459Z,849
2019-06-01T06:03:45.822Z,826
2019-06-01T06:04:47.184Z,815
2019-06-01T06:05:48.559Z,798
2019-06-01T06:06:49.932Z,793
2019-06-01T06:07:51.332Z,838
2019-06-01T06:08:52.678Z,905
2019-06-01T06:09:54.057Z,916
2019-06-01T06:10:55.489Z,894
2019-06-01T06:11:56.872Z,900
2019-06-01T06:12:58.238Z,967
2019-06-01T06:13:59.624Z,973
2019-06-01T06:15:00.988Z,995
2019-06-01T06:16:02.362Z,973
2019-06-01T06:17:03.765Z,905
2019-06-01T06:18:05.106Z,866
2019-06-01T06:19:06.474Z,871
2019-06-01T06:20:07.847Z,871
2019-06-01T06:21:09.224Z,871
2019-06-01T06:22:10.593Z,883
2019-06-01T06:23:12.219Z,916
2019-06-01T06:24:14.308Z,956
2019-06-01T06:25:14.682Z,1006
2019-06-01T06:26:17.297Z,990
2019-06-01T06:27:18.524Z,1006
2019-06-01T06:28:18.843Z,1046
2019-06-01T06:29:20.893Z,1074
2019-06-01T06:30:21.419Z,1046
2019-06-01T06:31:23.258Z,1051
2019-06-01T06:32:24.144Z,1068
2019-06-01T06:33:25.509Z,1096
2019-06-01T06:34:26.881Z,1153
2019-06-01T06:35:28.274Z,1198
2019-06-01T06:36:29.640Z,1170
2019-06-01T06:37:31.062Z,1170
2019-06-01T06:38:32.435Z,1192
2019-06-01T06:39:33.808Z,1248
2019-06-01T06:40:35.192Z,1260
2019-06-01T06:41:36.584Z,1305
2019-06-01T06:42:37.957Z,1327
2019-06-01T06:43:39.327Z,1316
2019-06-01T06:44:40.717Z,1310
2019-06-01T06:45:42.104Z,1276
2019-06-01T06:46:43.479Z,1175
2019-06-01T06:47:44.854Z,1265
2019-06-01T06:48:46.243Z,1383
2019-06-01T06:49:47.659Z,1518
2019-06-01T06:50:49.034Z,1620
2019-06-01T06:51:50.413Z,1743
2019-06-01T06:52:51.789Z,1816
2019-06-01T06:53:53.160Z,1890
2019-06-01T06:54:54.536Z,1845
2019-06-01T06:55:55.909Z,1850
2019-06-01T06:56:57.288Z,1895
2019-06-01T06:57:58.664Z,1816
2019-06-01T06:59:00.045Z,1856
2019-06-01T07:00:01.459Z,1901
2019-06-01T07:01:02.801Z,1929
2019-06-01T07:02:04.177Z,1850
2019-06-01T07:03:05.562Z,1895
2019-06-01T07:04:12.606Z,1918
2019-06-01T07:05:08.305Z,1923
2019-06-01T07:06:09.674Z,1996
2019-06-01T07:07:11.046Z,1996
2019-06-01T07:08:12.433Z,2053
2019-06-01T07:09:13.816Z,2030
2019-06-01T07:10:15.233Z,2070
2019-06-01T07:11:16.570Z,2047
2019-06-01T07:12:19.118Z,1884
2019-06-01T07:13:19.346Z,2013
2019-06-01T07:14:21.280Z,2064
2019-06-01T07:15:21.999Z,2041
2019-06-01T07:16:23.497Z,2165
2019-06-01T07:17:25.535Z,2126
2019-06-01T07:18:26.062Z,2098
2019-06-01T07:19:27.914Z,2154
2019-06-01T07:20:28.785Z,2081
2019-06-01T07:21:30.288Z,2064
2019-06-01T07:22:32.123Z,2103
2019-06-01T07:23:33.007Z,2075
2019-06-01T07:24:34.389Z,2103
2019-06-01T07:25:35.762Z,2041
2019-06-01T07:26:37.147Z,2002
2019-06-01T07:27:38.520Z,1980
2019-06-01T07:28:39.940Z,2030
2019-06-01T07:29:41.299Z,2053
2019-06-01T07:30:50.481Z,1833
2019-06-01T07:31:44.121Z,1873
2019-06-01T07:32:45.500Z,2019
2019-06-01T07:33:46.880Z,2160
2019-06-01T07:34:48.245Z,2306
2019-06-01T07:35:49.638Z,2362
2019-06-01T07:36:51.036Z,2238
2019-06-01T07:37:52.389Z,2356
2019-06-01T07:38:53.789Z,2334
2019-06-01T07:39:55.178Z,2238
2019-06-01T07:40:56.550Z,2131
2019-06-01T07:41:58.092Z,2030
2019-06-01T07:42:59.309Z,2081
2019-06-01T07:44:00.688Z,2070
2019-06-01T07:45:02.228Z,2255
2019-06-01T07:46:03.477Z,2266
2019-06-01T07:47:04.854Z,2160
2019-06-01T07:48:06.259Z,2233
2019-06-01T07:49:07.629Z,2238
2019-06-01T07:50:09.014Z,2255
2019-06-01T07:51:10.404Z,2199
2019-06-01T07:52:13.434Z,2255
2019-06-01T07:53:13.125Z,2317
2019-06-01T07:54:14.539Z,2306
2019-06-01T07:55:15.859Z,2154
2019-06-01T07:56:17.245Z,2216
2019-06-01T07:57:18.624Z,2272
2019-06-01T07:58:20.798Z,2390
2019-06-01T07:59:22.539Z,2396
2019-06-01T08:00:23.995Z,2458
2019-06-01T08:01:25.778Z,2514
2019-06-01T08:02:26.246Z,2311
2019-06-01T08:03:29.468Z,2205
2019-06-01T08:04:29.944Z,2413
2019-06-01T08:05:30.053Z,2323
2019-06-01T08:06:32.624Z,1951
2019-06-01T08:07:32.248Z,1901
2019-06-01T08:08:33.620Z,2013
2019-06-01T08:09:34.995Z,2137
2019-06-01T08:10:36.385Z,2216
2019-06-01T08:11:37.766Z,2345
2019-06-01T08:12:39.161Z,2165
2019-06-01T08:13:40.530Z,2283
2019-06-01T08:14:41.919Z,2306
2019-06-01T08:15:43.310Z,2317
2019-06-01T08:16:44.689Z,2413
2019-06-01T08:17:46.091Z,2722
2019-06-01T08:18:47.473Z,2778
2019-06-01T08:19:51.710Z,2851
2019-06-01T08:20:50.245Z,2829
2019-06-01T08:21:51.637Z,2818
2019-06-01T08:22:53.005Z,2840
2019-06-01T08:23:54.396Z,2823
2019-06-01T08:24:55.782Z,2790
2019-06-01T08:25:57.295Z,2784
2019-06-01T08:26:58.676Z,2812
2019-06-01T08:28:00.061Z,2891
2019-06-01T08:29:01.450Z,2818
2019-06-01T08:30:02.854Z,2694
2019-06-01T08:31:04.245Z,2643
2019-06-01T08:32:05.633Z,2598
2019-06-01T08:33:07.008Z,2677
2019-06-01T08:34:08.595Z,2784
2019-06-01T08:35:09.907Z,2688
2019-06-01T08:36:11.121Z,2688
2019-06-01T08:37:12.505Z,2683
2019-06-01T08:38:13.893Z,2773
2019-06-01T08:39:15.278Z,2694
2019-06-01T08:40:16.640Z,2643
2019-06-01T08:41:18.031Z,2728
2019-06-01T08:42:19.421Z,2649
2019-06-01T08:43:20.806Z,2643
2019-06-01T08:44:23.477Z,2638
2019-06-01T08:45:23.589Z,2851
2019-06-01T08:46:25.551Z,2835
2019-06-01T08:47:27.714Z,2868
2019-06-01T08:48:27.734Z,3150
2019-06-01T08:49:30.560Z,3138
2019-06-01T08:50:30.320Z,2981
2019-06-01T08:51:32.083Z,2795
2019-06-01T08:52:34.150Z,2778
2019-06-01T08:53:34.492Z,2829
2019-06-01T08:54:35.884Z,2801
2019-06-01T08:55:37.273Z,2919
2019-06-01T08:56:38.662Z,2868
2019-06-01T08:57:40.036Z,2930
2019-06-01T08:58:41.441Z,3144
2019-06-01T08:59:42.828Z,2908
2019-06-01T09:00:44.216Z,2919
2019-06-01T09:01:45.600Z,2891
2019-06-01T09:02:46.986Z,2913
2019-06-01T09:03:48.373Z,2925
2019-06-01T09:04:49.760Z,2891
2019-06-01T09:05:51.138Z,2885
2019-06-01T09:06:52.521Z,3133
2019-06-01T09:07:53.919Z,3093
2019-06-01T09:08:55.300Z,3200
2019-06-01T09:09:56.689Z,3127
2019-06-01T09:10:58.077Z,3071
2019-06-01T09:11:59.479Z,2851
2019-06-01T09:13:00.858Z,2941
2019-06-01T09:14:02.228Z,3121
2019-06-01T09:15:03.616Z,3211
2019-06-01T09:16:05.018Z,3099
2019-06-01T09:17:06.398Z,2801
2019-06-01T09:18:07.780Z,2610
2019-06-01T09:19:11.296Z,2531
2019-06-01T09:20:10.550Z,3121
2019-06-01T09:21:12.024Z,3183
2019-06-01T09:22:13.292Z,3301
2019-06-01T09:23:14.672Z,3380
2019-06-01T09:24:16.072Z,3172
2019-06-01T09:25:17.447Z,2880
2019-06-01T09:26:18.820Z,3178
2019-06-01T09:27:20.213Z,3273
2019-06-01T09:28:21.596Z,3166
2019-06-01T09:29:22.986Z,3003
2019-06-01T09:30:25.792Z,3071
2019-06-01T09:31:26.277Z,3318
2019-06-01T09:32:27.847Z,3256
2019-06-01T09:33:28.435Z,3110
2019-06-01T09:34:30.460Z,3279
2019-06-01T09:35:49.943Z,3178
2019-06-01T09:36:32.566Z,3138
2019-06-01T09:37:34.930Z,3127
2019-06-01T09:38:35.826Z,3178
2019-06-01T09:39:37.287Z,3256
2019-06-01T09:40:38.032Z,3341
2019-06-01T09:41:39.422Z,3206
2019-06-01T09:42:40.818Z,3150
2019-06-01T09:43:42.203Z,2975
2019-06-01T09:44:43.606Z,2435
2019-06-01T09:45:44.993Z,2025
2019-06-01T09:46:46.531Z,2475
2019-06-01T09:47:47.937Z,3009
2019-06-01T09:48:49.326Z,3054
2019-06-01T09:49:50.720Z,3093
2019-06-01T09:50:52.121Z,3189
2019-06-01T09:51:53.513Z,3228
2019-06-01T09:52:54.892Z,3155
2019-06-01T09:53:56.295Z,1108
2019-06-01T09:54:57.698Z,1153
2019-06-01T09:55:59.087Z,3448
2019-06-01T09:57:00.512Z,3493
2019-06-01T09:58:01.985Z,3431
2019-06-01T09:59:03.322Z,916
2019-06-01T10:00:04.781Z,826
2019-06-01T10:01:06.205Z,804
2019-06-01T10:02:07.600Z,804
2019-06-01T10:03:08.988Z,826
2019-06-01T10:04:10.384Z,1063
2019-06-01T10:05:11.766Z,1085
2019-06-01T10:06:14.205Z,1006
2019-06-01T10:07:14.491Z,2677
2019-06-01T10:08:15.883Z,2835
2019-06-01T10:09:17.268Z,2953
2019-06-01T10:10:18.657Z,3403
2019-06-01T10:11:20.055Z,3442
2019-06-01T10:12:21.455Z,3363
2019-06-01T10:13:22.856Z,3268
2019-06-01T10:14:24.243Z,3290
2019-06-01T10:15:25.642Z,3313
2019-06-01T10:16:27.031Z,3245
2019-06-01T10:17:28.418Z,3397
2019-06-01T10:18:30.753Z,3375
2019-06-01T10:19:31.148Z,3105
2019-06-01T10:20:33.194Z,3088
2019-06-01T10:21:34.065Z,3127
2019-06-01T10:22:35.339Z,3082
2019-06-01T10:23:36.743Z,3043
2019-06-01T10:24:39.193Z,3335
2019-06-01T10:25:39.473Z,3330
2019-06-01T10:26:41.883Z,3391
2019-06-01T10:27:42.858Z,3498
2019-06-01T10:28:43.571Z,3481
2019-06-01T10:29:44.959Z,3510
2019-06-01T10:30:46.367Z,3442
2019-06-01T10:31:47.761Z,3425
2019-06-01T10:32:49.139Z,3358
2019-06-01T10:33:51.745Z,3155
2019-06-01T10:34:51.884Z,3082
2019-06-01T10:35:53.278Z,3043
2019-06-01T10:36:54.661Z,2868
2019-06-01T10:37:56.054Z,2902
2019-06-01T10:38:57.436Z,2880
2019-06-01T10:39:58.916Z,3144
2019-06-01T10:41:00.305Z,3178
2019-06-01T10:42:01.697Z,3228
2019-06-01T10:43:03.073Z,3206
2019-06-01T10:44:04.497Z,3240
2019-06-01T10:45:05.899Z,3408
2019-06-01T10:46:07.349Z,3448
2019-06-01T10:47:08.797Z,3352
2019-06-01T10:48:10.227Z,3285
2019-06-01T10:49:11.668Z,3465
2019-06-01T10:50:13.066Z,3420
2019-06-01T10:51:14.444Z,3510
2019-06-01T10:52:15.833Z,3414
2019-06-01T10:53:17.255Z,3307
2019-06-01T10:54:18.643Z,3380
2019-06-01T10:55:20.038Z,3403
2019-06-01T10:56:21.437Z,3352
2019-06-01T10:57:22.820Z,3425
2019-06-01T10:58:24.208Z,3526
2019-06-01T10:59:25.627Z,3476
2019-06-01T11:00:37.878Z,3498
2019-06-01T11:01:28.387Z,3504
2019-06-01T11:02:29.767Z,3560
2019-06-01T11:03:32.435Z,3408
2019-06-01T11:04:32.752Z,3420
2019-06-01T11:05:34.903Z,3470
2019-06-01T11:06:40.949Z,3515
2019-06-01T11:07:36.881Z,3560
2019-06-01T11:08:38.947Z,3481
2019-06-01T11:09:39.444Z,3504
2019-06-01T11:10:40.990Z,3493
2019-06-01T11:11:43.126Z,3521
2019-06-01T11:12:43.552Z,3555
2019-06-01T11:13:44.948Z,3369
2019-06-01T11:14:46.338Z,3459
2019-06-01T11:15:47.737Z,3673
2019-06-01T11:16:55.653Z,3532
2019-06-01T11:17:50.484Z,3369
2019-06-01T11:18:51.873Z,3577
2019-06-01T11:19:53.263Z,3543
2019-06-01T11:20:54.672Z,3526
2019-06-01T11:21:56.070Z,3515
2019-06-01T11:22:57.455Z,3543
2019-06-01T11:23:58.855Z,3498
2019-06-01T11:25:00.250Z,3493
2019-06-01T11:26:01.655Z,3504
2019-06-01T11:27:03.033Z,3403
2019-06-01T11:28:04.424Z,3397
2019-06-01T11:29:05.819Z,3363
2019-06-01T11:30:07.213Z,3645
2019-06-01T11:31:08.603Z,3774
2019-06-01T11:32:10.006Z,3661
2019-06-01T11:33:11.489Z,3667
2019-06-01T11:34:12.883Z,3650
2019-06-01T11:35:14.278Z,3633
2019-06-01T11:36:15.673Z,3600
2019-06-01T11:37:17.082Z,3425
2019-06-01T11:38:18.479Z,3436
2019-06-01T11:39:19.869Z,3436
2019-06-01T11:40:21.263Z,3459
2019-06-01T11:41:22.649Z,3498
2019-06-01T11:42:24.036Z,3526
2019-06-01T11:43:25.432Z,3442
2019-06-01T11:44:26.821Z,3448
2019-06-01T11:45:28.213Z,3650
2019-06-01T11:46:29.603Z,3628
2019-06-01T11:47:30.995Z,3481
2019-06-01T11:48:32.385Z,3532
2019-06-01T11:49:34.624Z,3262
2019-06-01T11:50:35.222Z,2823
2019-06-01T11:51:36.960Z,2750
2019-06-01T11:52:39.086Z,2778
2019-06-01T11:53:39.948Z,2790
2019-06-01T11:54:41.189Z,2812
2019-06-01T11:55:43.279Z,3431
2019-06-01T11:56:43.417Z,3504
2019-06-01T11:57:45.883Z,3414
2019-06-01T11:58:46.014Z,3391
2019-06-01T11:59:47.590Z,3324
2019-06-01T12:00:49.003Z,3380
2019-06-01T12:01:50.394Z,3363
2019-06-01T12:02:51.780Z,3313
2019-06-01T12:03:53.166Z,3605
2019-06-01T12:04:54.558Z,3397
2019-06-01T12:05:55.958Z,3493
2019-06-01T12:07:13.722Z,3476
2019-06-01T12:07:58.699Z,3425
2019-06-01T12:09:00.090Z,3262
2019-06-01T12:10:01.485Z,3211
2019-06-01T12:11:02.878Z,3448
2019-06-01T12:12:04.256Z,3442
2019-06-01T12:13:05.649Z,3330
2019-06-01T12:14:07.037Z,3352
2019-06-01T12:15:08.446Z,3318
2019-06-01T12:16:09.849Z,3346
2019-06-01T12:17:11.240Z,3358
2019-06-01T12:18:12.631Z,3273
2019-06-01T12:19:14.019Z,3279
2019-06-01T12:20:15.404Z,3155
2019-06-01T12:21:16.799Z,3043
2019-06-01T12:22:18.193Z,3048
2019-06-01T12:23:19.564Z,3223
2019-06-01T12:24:25.453Z,3240
2019-06-01T12:25:22.305Z,3161
2019-06-01T12:26:23.811Z,2925
2019-06-01T12:27:25.166Z,3003
2019-06-01T12:28:26.544Z,3071
2019-06-01T12:29:27.935Z,2913
2019-06-01T12:30:29.326Z,2902
2019-06-01T12:31:30.713Z,2970
2019-06-01T12:32:32.090Z,2829
2019-06-01T12:33:33.478Z,2801
2019-06-01T12:34:34.873Z,2745
2019-06-01T12:35:36.251Z,2846
2019-06-01T12:36:39.266Z,3076
2019-06-01T12:37:56.159Z,2936
2019-06-01T12:38:40.345Z,2846
2019-06-01T12:39:42.308Z,2930
2019-06-01T12:40:43.303Z,2851
2019-06-01T12:41:45.592Z,2880
2019-06-01T12:42:45.937Z,2964
2019-06-01T12:43:47.743Z,2857
2019-06-01T12:44:48.520Z,2733
2019-06-01T12:46:05.484Z,2632
2019-06-01T12:46:51.259Z,2525
2019-06-01T12:47:55.591Z,2351
2019-06-01T12:48:54.041Z,2221
2019-06-01T12:49:55.429Z,2019
2019-06-01T12:50:56.818Z,1935
2019-06-01T12:51:58.214Z,2030
2019-06-01T12:52:59.583Z,2143
2019-06-01T12:54:01.025Z,1901
2019-06-01T12:55:02.414Z,1608
2019-06-01T12:56:03.810Z,1468
2019-06-01T12:57:05.211Z,1406
2019-06-01T12:58:06.589Z,1400
2019-06-01T12:59:07.974Z,1411
2019-06-01T13:00:09.369Z,1417
2019-06-01T13:01:10.754Z,1423
2019-06-01T13:02:12.141Z,1440
2019-06-01T13:03:13.520Z,1445
2019-06-01T13:04:14.916Z,1445
2019-06-01T13:05:16.330Z,1451
2019-06-01T13:06:17.730Z,1440
2019-06-01T13:07:19.116Z,1445
2019-06-01T13:08:20.496Z,1434
2019-06-01T13:09:21.888Z,1411
2019-06-01T13:10:23.280Z,1389
2019-06-01T13:11:24.674Z,1428
2019-06-01T13:12:26.077Z,1490
2019-06-01T13:13:27.455Z,1535
2019-06-01T13:14:28.844Z,1558
2019-06-01T13:15:30.235Z,1563
2019-06-01T13:16:31.624Z,1586
2019-06-01T13:17:33.016Z,1597
2019-06-01T13:18:34.413Z,1620
2019-06-01T13:19:35.799Z,1631
2019-06-01T13:20:37.297Z,1653
2019-06-01T13:21:38.682Z,1665
2019-06-01T13:22:41.192Z,1665
2019-06-01T13:23:41.435Z,1670
2019-06-01T13:24:43.684Z,1676
2019-06-01T13:25:45.494Z,1687
2019-06-01T13:26:45.718Z,1698
2019-06-01T13:27:48.701Z,1715
2019-06-01T13:28:48.293Z,1715
2019-06-01T13:29:50.180Z,1721
2019-06-01T13:30:51.128Z,1732
2019-06-01T13:31:52.623Z,1738
2019-06-01T13:32:53.632Z,1749
2019-06-01T13:33:55.039Z,1738
2019-06-01T13:34:56.432Z,1738
2019-06-01T13:35:57.830Z,1738
2019-06-01T13:36:59.923Z,1732
2019-06-01T13:38:11.850Z,1726
2019-06-01T13:39:03.951Z,1721
2019-06-01T13:40:05.920Z,1698
2019-06-01T13:41:07.840Z,1687
2019-06-01T13:42:10.166Z,1687
2019-06-01T13:43:12.544Z,1676
2019-06-01T13:44:13.934Z,1670
2019-06-01T13:45:15.895Z,1648
2019-06-01T13:46:18.285Z,1636
2019-06-01T13:47:20.579Z,1625
2019-06-01T13:48:22.833Z,1608
2019-06-01T13:49:24.228Z,1603
2019-06-01T13:50:26.406Z,1586
2019-06-01T13:51:28.549Z,1580
2019-06-01T13:52:30.605Z,1569
2019-06-01T13:53:32.788Z,1558
2019-06-01T13:54:34.624Z,1546
2019-06-01T13:55:37.015Z,1535
2019-06-01T13:56:38.429Z,1507
2019-06-01T13:57:40.717Z,1490
2019-06-01T13:58:42.107Z,1479
2019-06-01T13:59:44.467Z,1473
2019-06-01T14:00:44.851Z,1456
2019-06-01T14:01:47.032Z,1445
2019-06-01T14:02:52.135Z,1428
2019-06-01T14:03:52.202Z,1417
2019-06-01T14:04:54.199Z,1400